Time;durP1;ratioP1;P1;durP2;ratioP2;P2;SDS_P1;SDS_P2;PMS_P1;PMS_P2;Temp;Humidity;BMP_temperature;BMP_pressure;BME280_temperature;BME280_humidity;BME280_pressure;Samples;Min_cycle;Max_cycle;Signal;HPM_P1;HPM_P2
2022/03/22 00:00:35;;;;;;;5.17;3.60;;;;;;;-3.28;59.91;99587.84;6227431;28;20263;-79
2022/03/22 00:03:37;;;;;;;6.27;4.00;;;;;;;-3.26;59.83;99588.72;6222247;28;20248;-80
2022/03/22 00:06:39;;;;;;;8.33;4.00;;;;;;;-3.30;60.37;99591.28;6207444;28;20305;-78
2022/03/22 00:09:41;;;;;;;8.53;4.57;;;;;;;-3.34;60.62;99587.81;6233669;28;20227;-80
2022/03/22 00:12:58;;;;;;;6.77;3.30;;;;;;;-3.34;60.31;99595.56;6210880;28;20277;-79
2022/03/22 00:16:01;;;;;;;5.57;3.53;;;;;;;-3.35;60.46;99592.09;6251218;28;20231;-79
2022/03/22 00:19:23;;;;;;;6.50;4.40;;;;;;;-3.36;60.39;99589.50;6252424;28;20224;-79
2022/03/22 00:22:25;;;;;;;7.80;4.20;;;;;;;-3.38;60.94;99588.63;6234189;28;20231;-78
2022/03/22 00:25:27;;;;;;;6.73;4.33;;;;;;;-3.48;61.57;99587.72;6227892;28;20223;-81
2022/03/22 00:28:30;;;;;;;5.93;4.30;;;;;;;-3.49;61.54;99585.13;6226258;28;20290;-79
2022/03/22 00:31:32;;;;;;;5.83;3.73;;;;;;;-3.49;61.79;99588.56;6237914;28;20365;-79
2022/03/22 00:34:44;;;;;;;6.03;3.87;;;;;;;-3.51;61.42;99581.69;6234543;28;20312;-79
2022/03/22 00:37:49;;;;;;;6.03;4.13;;;;;;;-3.57;61.59;99581.63;6234667;28;20795;-78
2022/03/22 00:40:51;;;;;;;9.23;4.70;;;;;;;-3.59;61.35;99579.03;6234653;28;20916;-79
2022/03/22 00:43:53;;;;;;;6.23;4.20;;;;;;;-3.58;61.44;99578.19;6210749;28;20736;-80
2022/03/22 00:46:55;;;;;;;7.00;4.13;;;;;;;-3.60;61.24;99579.94;6232620;28;20710;-78
2022/03/22 00:49:57;;;;;;;6.47;3.60;;;;;;;-3.60;61.73;99574.75;6209958;28;20231;-79
2022/03/22 00:53:00;;;;;;;7.87;4.70;;;;;;;-3.59;61.46;99585.94;6223661;28;20222;-79
2022/03/22 00:56:04;;;;;;;4.80;3.40;;;;;;;-3.60;61.33;99581.63;6239492;28;20242;-79
2022/03/22 01:02:28;;;;;;;5.87;3.93;;;;;;;-3.62;61.74;99575.59;6243821;28;20707;-79
2022/03/22 01:05:31;;;;;;;6.50;4.37;;;;;;;-3.64;62.03;99575.59;6214752;28;20223;-78
2022/03/22 01:08:33;;;;;;;6.23;3.70;;;;;;;-3.67;62.19;99575.56;6232977;28;20252;-80
2022/03/22 01:11:36;;;;;;;7.80;3.90;;;;;;;-3.66;62.90;99573.84;6210082;28;20326;-81
2022/03/22 01:14:39;;;;;;;6.77;3.97;;;;;;;-3.70;62.17;99572.13;6251405;28;20783;-80
2022/03/22 01:17:43;;;;;;;5.57;4.00;;;;;;;-3.72;61.79;99565.22;6230545;28;20320;-79
2022/03/22 01:20:47;;;;;;;8.60;4.03;;;;;;;-3.73;62.60;99562.63;6251575;28;20243;-80
2022/03/22 01:23:50;;;;;;;6.67;3.80;;;;;;;-3.72;62.35;99572.97;6222083;28;20235;-80
2022/03/22 01:26:52;;;;;;;5.70;3.60;;;;;;;-3.76;62.87;99562.59;6238502;28;20234;-79
2022/03/22 01:29:54;;;;;;;10.37;4.60;;;;;;;-3.75;62.40;99569.47;6239511;28;20698;-80
2022/03/22 01:32:56;;;;;;;7.57;5.03;;;;;;;-3.74;62.24;99559.19;6239041;28;20650;-80
2022/03/22 01:36:04;;;;;;;6.27;3.77;;;;;;;-3.73;62.70;99565.22;6253739;28;20230;-79
2022/03/22 01:39:06;;;;;;;5.50;3.57;;;;;;;-3.73;62.96;99558.34;6256997;28;20222;-76
2022/03/22 01:42:08;;;;;;;7.30;4.10;;;;;;;-3.72;62.46;99554.03;6238712;28;20211;-79
2022/03/22 01:45:11;;;;;;;6.03;4.23;;;;;;;-3.70;62.86;99547.19;6237615;28;20234;-80
2022/03/22 01:48:19;;;;;;;10.60;4.73;;;;;;;-3.73;62.71;99550.59;6214890;28;20208;-79
2022/03/22 01:51:22;;;;;;;7.50;4.10;;;;;;;-3.74;63.06;99554.03;6232127;28;20321;-79
2022/03/22 01:54:24;;;;;;;7.07;4.03;;;;;;;-3.74;63.13;99554.03;6242423;28;20318;-79
2022/03/22 01:57:30;;;;;;;5.43;3.47;;;;;;;-3.77;63.01;99548.84;6237981;28;20262;-80
2022/03/22 02:00:32;;;;;;;6.27;4.03;;;;;;;-3.77;63.39;99550.56;6255948;28;20226;-79
2022/03/22 02:06:56;;;;;;;4.60;3.40;;;;;;;-3.73;62.43;99544.56;6256436;28;20231;-79
2022/03/22 02:09:58;;;;;;;6.93;4.63;;;;;;;-3.71;62.59;99540.28;6254620;28;20238;-80
2022/03/22 02:13:01;;;;;;;7.17;4.10;;;;;;;-3.74;62.78;99543.72;6238595;28;20762;-80
2022/03/22 02:16:03;;;;;;;7.27;4.30;;;;;;;-3.78;63.36;99543.66;6243464;28;20750;-81
2022/03/22 02:19:08;;;;;;;5.53;3.90;;;;;;;-3.80;63.58;99545.41;6220812;28;20240;-76
2022/03/22 02:22:15;;;;;;;6.63;3.83;;;;;;;-3.81;62.72;99534.22;6245470;28;20353;-79
2022/03/22 02:25:19;;;;;;;5.87;4.37;;;;;;;-3.79;63.36;99542.78;6215816;28;20394;-78
2022/03/22 02:28:21;;;;;;;7.37;4.03;;;;;;;-3.79;63.08;99541.94;6236670;28;20232;-79
2022/03/22 02:31:29;;;;;;;7.83;4.60;;;;;;;-3.79;63.31;99542.78;6237670;28;21075;-79
2022/03/22 02:34:35;;;;;;;6.83;4.03;;;;;;;-3.82;63.70;99540.22;6254434;28;20733;-79
2022/03/22 02:37:37;;;;;;;6.03;4.37;;;;;;;-3.83;63.44;99535.03;6237568;28;20243;-80
2022/03/22 02:40:40;;;;;;;6.53;4.47;;;;;;;-3.81;64.09;99546.25;6236907;28;20632;-78
2022/03/22 02:43:43;;;;;;;7.23;4.83;;;;;;;-3.79;63.42;99549.66;6237758;28;20705;-79
2022/03/22 02:46:46;;;;;;;7.27;4.60;;;;;;;-3.84;63.74;99539.34;6237286;28;20240;-78
2022/03/22 02:49:49;;;;;;;6.97;4.43;;;;;;;-3.84;63.66;99541.91;6218871;28;20235;-80
2022/03/22 02:52:51;;;;;;;6.43;4.30;;;;;;;-3.87;64.41;99539.31;6224969;28;20226;-80
2022/03/22 02:55:53;;;;;;;7.07;4.87;;;;;;;-3.93;64.33;99541.00;6246619;28;20305;-80
2022/03/22 02:58:55;;;;;;;6.73;5.03;;;;;;;-3.97;63.91;99542.66;6217216;28;20227;-81
2022/03/22 03:01:57;;;;;;;5.10;4.40;;;;;;;-4.01;64.64;99543.53;6236982;28;20235;-80
2022/03/22 03:05:00;;;;;;;10.33;4.80;;;;;;;-4.01;63.98;99545.22;6237253;28;20340;-78
2022/03/22 03:08:02;;;;;;;7.70;5.40;;;;;;;-4.06;64.71;99545.19;6237594;28;20716;-79
2022/03/22 03:11:05;;;;;;;8.07;4.93;;;;;;;-4.09;64.64;99548.59;6237134;28;20234;-80
2022/03/22 03:17:29;;;;;;;7.57;5.13;;;;;;;-4.11;64.87;99552.91;6248071;28;20294;-79
2022/03/22 03:20:31;;;;;;;7.33;5.10;;;;;;;-4.09;65.57;99546.00;6228707;28;20316;-81
2022/03/22 03:23:33;;;;;;;8.70;5.90;;;;;;;-4.11;65.10;99560.63;6235930;28;20861;-79
2022/03/22 03:26:35;;;;;;;7.87;5.70;;;;;;;-4.16;65.05;99551.13;6253024;28;20215;-79
2022/03/22 03:29:37;;;;;;;9.10;5.37;;;;;;;-4.19;65.13;99553.66;6237405;28;20882;-80
2022/03/22 03:32:39;;;;;;;8.70;5.60;;;;;;;-4.22;65.06;99557.09;6237231;28;20238;-80
2022/03/22 03:35:42;;;;;;;8.67;5.90;;;;;;;-4.22;65.70;99556.22;6236328;28;20226;-79
2022/03/22 03:38:44;;;;;;;7.33;5.50;;;;;;;-4.21;65.06;99560.53;6227714;28;20238;-80
2022/03/22 03:41:56;;;;;;;9.63;5.73;;;;;;;-4.26;65.53;99555.34;6244963;28;20627;-78
2022/03/22 03:48:19;;;;;;;7.70;5.13;;;;;;;-4.34;65.78;99556.13;6216623;28;20589;-80
2022/03/22 03:51:21;;;;;;;11.20;6.20;;;;;;;-4.32;66.01;99559.56;6236321;28;20722;-79
2022/03/22 03:54:24;;;;;;;12.47;6.57;;;;;;;-4.33;65.99;99553.56;6216875;28;20268;-80
2022/03/22 03:57:27;;;;;;;9.03;6.23;;;;;;;-4.34;65.87;99556.97;6235380;28;20522;-79
2022/03/22 04:00:29;;;;;;;11.17;6.50;;;;;;;-4.33;66.03;99560.44;6235558;28;20761;-79
2022/03/22 04:03:32;;;;;;;10.57;6.30;;;;;;;-4.36;66.04;99556.09;6236241;28;20293;-80
2022/03/22 04:06:34;;;;;;;11.57;6.77;;;;;;;-4.38;66.57;99564.66;6214681;28;20231;-80
2022/03/22 04:09:38;;;;;;;12.77;6.70;;;;;;;-4.39;66.28;99561.22;6236210;28;20740;-81
2022/03/22 04:12:44;;;;;;;10.60;6.63;;;;;;;-4.37;66.56;99566.38;6235528;28;20305;-79
2022/03/22 04:15:46;;;;;;;9.87;6.37;;;;;;;-4.42;66.50;99565.50;6227531;28;20527;-80
2022/03/22 04:18:50;;;;;;;12.37;7.00;;;;;;;-4.47;66.89;99566.31;6219249;28;20327;-80
2022/03/22 04:21:52;;;;;;;10.80;7.07;;;;;;;-4.49;67.03;99567.13;6253112;28;20269;-80
2022/03/22 04:24:54;;;;;;;11.87;7.50;;;;;;;-4.50;66.39;99562.84;6215532;28;20241;-79
2022/03/22 04:34:41;;;;;;;11.33;6.47;;;;;;;-4.55;67.27;99565.38;6234930;28;20242;-80
2022/03/22 04:37:44;;;;;;;11.33;6.53;;;;;;;-4.56;67.06;99576.50;6252419;28;20246;-80
2022/03/22 04:40:47;;;;;;;12.47;6.70;;;;;;;-4.60;67.05;99579.94;6236079;28;20239;-79
2022/03/22 04:43:53;;;;;;;11.93;6.80;;;;;;;-4.62;67.90;99580.75;6226049;28;20227;-80
2022/03/22 04:46:56;;;;;;;12.63;7.00;;;;;;;-4.62;67.24;99575.59;6218219;28;20268;-81
2022/03/22 04:49:59;;;;;;;11.10;7.17;;;;;;;-4.58;67.48;99585.06;6227550;28;20223;-81
2022/03/22 04:59:43;;;;;;;13.27;6.50;;;;;;;-4.57;67.92;99595.38;6251155;28;20226;-80
2022/03/22 05:02:47;;;;;;;12.50;7.13;;;;;;;-4.53;67.59;99596.31;6250711;28;20332;-79
2022/03/22 05:09:11;;;;;;;11.03;7.13;;;;;;;-4.40;67.31;99599.88;6227088;28;20236;-80
2022/03/22 05:12:13;;;;;;;13.30;7.13;;;;;;;-4.37;67.57;99594.72;6214768;28;20231;-81
2022/03/22 05:15:15;;;;;;;13.33;7.10;;;;;;;-4.33;67.45;99594.78;6230160;28;20615;-79
2022/03/22 05:18:19;;;;;;;12.13;6.87;;;;;;;-4.31;67.19;99597.38;6256581;28;20238;-79
2022/03/22 05:21:22;;;;;;;11.20;7.13;;;;;;;-4.29;67.91;99595.69;6239702;28;20223;-78
2022/03/22 05:24:25;;;;;;;8.67;6.30;;;;;;;-4.20;66.89;99590.63;6248136;28;20231;-79
2022/03/22 05:27:28;;;;;;;10.27;7.00;;;;;;;-4.14;66.58;99588.94;6240650;28;20227;-79
2022/03/22 05:30:32;;;;;;;11.73;6.67;;;;;;;-4.03;66.82;99594.19;6241260;28;20254;-80
2022/03/22 05:33:34;;;;;;;10.43;6.50;;;;;;;-3.94;66.73;99603.72;6241415;28;20238;-79
2022/03/22 05:36:37;;;;;;;9.93;6.70;;;;;;;-3.89;66.28;99605.47;6217945;28;20274;-79
2022/03/22 05:39:39;;;;;;;9.30;6.30;;;;;;;-3.83;67.14;99602.97;6241709;28;20227;-79
2022/03/22 05:42:41;;;;;;;11.53;6.83;;;;;;;-3.75;66.54;99603.88;6240586;28;20239;-78
2022/03/22 05:45:48;;;;;;;10.90;6.50;;;;;;;-3.66;66.03;99608.25;6233008;28;20289;-79
2022/03/22 05:48:51;;;;;;;10.30;6.30;;;;;;;-3.62;65.96;99601.41;6218738;28;20670;-80
2022/03/22 05:51:53;;;;;;;10.63;6.37;;;;;;;-3.56;65.75;99607.44;6218854;28;20230;-80
2022/03/22 05:54:55;;;;;;;8.53;6.37;;;;;;;-3.49;66.04;99604.06;6222947;28;20235;-80
2022/03/22 05:57:57;;;;;;;10.20;6.33;;;;;;;-3.43;66.11;99604.13;6238309;28;20265;-79
2022/03/22 06:01:00;;;;;;;8.90;6.30;;;;;;;-3.39;65.73;99608.41;6238095;28;20227;-79
2022/03/22 06:04:02;;;;;;;8.87;5.80;;;;;;;-3.35;65.58;99614.47;6256241;28;20238;-79
2022/03/22 06:07:05;;;;;;;11.43;6.80;;;;;;;-3.28;65.32;99615.38;6238289;28;20318;-79
2022/03/22 06:10:08;;;;;;;8.17;5.60;;;;;;;-3.25;66.03;99618.84;6256574;28;20242;-78
2022/03/22 06:13:10;;;;;;;10.80;6.53;;;;;;;-3.19;65.17;99610.25;6254138;28;20318;-79
2022/03/22 06:16:13;;;;;;;11.83;7.13;;;;;;;-3.13;64.68;99612.88;6230210;28;20252;-79
2022/03/22 06:19:15;;;;;;;10.30;7.13;;;;;;;-3.07;65.09;99616.34;6236339;28;20235;-81
2022/03/22 06:22:17;;;;;;;12.97;7.53;;;;;;;-3.02;65.30;99619.84;6254481;28;20242;-79
2022/03/22 06:25:19;;;;;;;10.83;6.93;;;;;;;-2.94;65.14;99625.03;6256399;28;20258;-79
2022/03/22 06:28:22;;;;;;;14.93;9.03;;;;;;;-2.85;65.59;99613.88;6238141;28;20600;-80
2022/03/22 06:31:23;;;;;;;13.83;8.17;;;;;;;-2.76;64.73;99619.06;6239191;28;20234;-79
2022/03/22 06:34:29;;;;;;;14.90;8.43;;;;;;;-2.68;64.61;99614.78;6220898;28;20231;-78
2022/03/22 06:37:31;;;;;;;9.17;6.17;;;;;;;-2.57;64.70;99615.69;6221718;28;20741;-78
2022/03/22 06:40:34;;;;;;;10.27;6.50;;;;;;;-2.39;64.28;99620.06;6245657;28;20235;-80
2022/03/22 06:43:36;;;;;;;9.43;6.87;;;;;;;-2.18;64.23;99620.09;6244770;28;20242;-80
2022/03/22 06:46:38;;;;;;;8.33;6.30;;;;;;;-2.08;63.84;99614.06;6246590;28;20334;-80
2022/03/22 06:49:40;;;;;;;8.70;5.57;;;;;;;-1.95;63.67;99621.00;6247012;28;20235;-79
2022/03/22 06:52:42;;;;;;;11.03;6.80;;;;;;;-1.82;63.68;99621.88;6263615;28;20234;-80
2022/03/22 06:55:44;;;;;;;11.37;6.07;;;;;;;-1.71;64.04;99620.16;6237091;28;20242;-78
2022/03/22 06:58:48;;;;;;;9.73;6.53;;;;;;;-1.56;63.45;99619.28;6219075;28;20307;-78
2022/03/22 07:01:50;;;;;;;10.93;6.63;;;;;;;-1.41;63.32;99629.63;6227536;28;20228;-80
2022/03/22 07:04:52;;;;;;;11.10;6.17;;;;;;;-1.30;63.44;99619.25;6234270;28;20231;-79
2022/03/22 07:07:56;;;;;;;11.40;7.00;;;;;;;-1.10;62.72;99619.22;6231076;28;20270;-79
2022/03/22 07:14:23;;;;;;;8.33;6.00;;;;;;;-0.75;61.76;99620.81;6165274;28;20230;-79
2022/03/22 07:17:25;;;;;;;11.17;6.70;;;;;;;-0.57;60.93;99616.41;6258602;28;20246;-79
2022/03/22 07:20:28;;;;;;;11.53;7.03;;;;;;;-0.39;60.98;99611.13;6258958;28;20249;-79
2022/03/22 07:23:33;;;;;;;12.63;6.90;;;;;;;-0.11;58.77;99619.63;6240272;28;20326;-79
2022/03/22 07:26:35;;;;;;;11.10;7.17;;;;;;;0.25;56.32;99618.50;6254418;28;20237;-79
2022/03/22 07:29:39;;;;;;;12.30;7.27;;;;;;;0.54;55.90;99626.91;6229260;28;20321;-80
2022/03/22 07:32:45;;;;;;;10.37;6.80;;;;;;;0.73;55.42;99630.19;6218784;28;20246;-80
2022/03/22 07:35:47;;;;;;;10.03;6.43;;;;;;;1.09;52.68;99626.34;6225371;28;20231;-79
2022/03/22 07:38:49;;;;;;;12.27;6.73;;;;;;;1.46;52.09;99630.25;6228491;28;20246;-79
2022/03/22 07:41:51;;;;;;;14.10;6.93;;;;;;;1.79;50.42;99622.88;6234823;28;20223;-78
2022/03/22 07:44:55;;;;;;;10.40;6.90;;;;;;;2.29;47.38;99619.53;6234208;28;20226;-79
2022/03/22 07:47:58;;;;;;;12.17;6.70;;;;;;;2.77;47.52;99620.44;6194489;28;20729;-75
2022/03/22 07:54:20;;;;;;;8.57;6.00;;;;;;;3.92;44.12;99621.56;6253364;28;20240;-75
2022/03/22 07:57:22;;;;;;;8.90;6.37;;;;;;;4.51;41.79;99616.69;6228841;28;20234;-74
2022/03/22 08:00:26;;;;;;;8.63;6.40;;;;;;;5.18;40.20;99614.03;6233246;28;20215;-75
2022/03/22 08:03:29;;;;;;;10.37;6.70;;;;;;;5.79;38.12;99609.63;6225815;28;20702;-76
2022/03/22 08:06:31;;;;;;;12.90;6.60;;;;;;;6.26;37.44;99604.72;6213994;28;20260;-74
2022/03/22 08:09:33;;;;;;;8.20;6.13;;;;;;;6.76;35.35;99612.69;6227333;28;20228;-74
2022/03/22 08:12:42;;;;;;;8.80;6.93;;;;;;;7.30;34.34;99609.88;6231549;28;20229;-76
2022/03/22 08:15:45;;;;;;;12.67;7.50;;;;;;;7.81;33.08;99606.25;6231047;28;20236;-75
2022/03/22 08:18:47;;;;;;;9.70;7.17;;;;;;;8.18;32.10;99606.53;6251393;28;20234;-75
2022/03/22 08:21:49;;;;;;;10.30;7.07;;;;;;;8.60;32.00;99606.59;6226982;28;20227;-76
2022/03/22 08:24:52;;;;;;;9.57;6.93;;;;;;;8.99;30.72;99606.66;6246954;28;20275;-74
2022/03/22 08:27:57;;;;;;;11.53;7.67;;;;;;;9.42;26.77;99607.44;6234490;28;20229;-75
2022/03/22 08:30:59;;;;;;;11.70;7.77;;;;;;;9.92;28.25;99599.84;6225481;28;20232;-75
2022/03/22 08:34:03;;;;;;;10.40;7.30;;;;;;;10.32;27.04;99601.47;6237412;28;20227;-75
2022/03/22 08:37:05;;;;;;;12.93;7.70;;;;;;;10.63;26.64;99599.03;6253018;28;20239;-75
2022/03/22 08:40:09;;;;;;;11.67;8.10;;;;;;;10.62;25.18;99599.97;6252634;28;20244;-75
2022/03/22 08:43:11;;;;;;;11.23;8.33;;;;;;;10.83;25.20;99600.69;6232085;28;20250;-75
2022/03/22 08:46:16;;;;;;;10.83;8.50;;;;;;;10.97;24.43;99605.28;6220079;28;20230;-76
2022/03/22 08:49:19;;;;;;;23.80;9.37;;;;;;;10.93;25.29;99601.06;6225379;28;20239;-75
2022/03/22 08:52:21;;;;;;;19.40;8.63;;;;;;;11.20;24.02;99597.00;6233866;28;20237;-75
2022/03/22 08:55:25;;;;;;;13.10;8.30;;;;;;;11.36;24.29;99597.91;6224666;28;20242;-76
2022/03/22 08:58:27;;;;;;;11.97;8.07;;;;;;;11.73;24.15;99599.44;6227049;28;20239;-76
2022/03/22 09:01:30;;;;;;;13.03;8.70;;;;;;;11.85;24.12;99605.88;6235319;28;20308;-76
2022/03/22 09:08:00;;;;;;;19.50;9.33;;;;;;;11.88;23.85;99600.41;6231349;28;20886;-75
2022/03/22 09:11:05;;;;;;;11.70;8.57;;;;;;;11.81;24.02;99599.91;6220414;28;20690;-74
2022/03/22 09:14:11;;;;;;;9.90;8.20;;;;;;;12.39;24.20;99591.34;6233582;28;20233;-76
2022/03/22 09:17:13;;;;;;;16.30;9.30;;;;;;;12.44;23.02;99594.59;6232981;28;20706;-76
2022/03/22 09:20:15;;;;;;;12.93;8.93;;;;;;;12.30;22.69;99586.56;6224769;28;20780;-76
2022/03/22 09:23:19;;;;;;;11.63;8.60;;;;;;;12.76;22.45;99583.94;6219273;28;20226;-76
2022/03/22 09:26:21;;;;;;;11.47;8.27;;;;;;;12.57;23.26;99590.31;6214758;28;20318;-75
2022/03/22 09:29:23;;;;;;;24.43;9.77;;;;;;;13.00;22.57;99578.97;6239159;28;20231;-76
2022/03/22 09:32:26;;;;;;;15.73;9.80;;;;;;;12.93;24.25;99587.28;6250215;28;20243;-76
2022/03/22 09:35:28;;;;;;;20.67;10.77;;;;;;;12.39;23.21;99588.69;6250147;28;20228;-76
2022/03/22 09:38:31;;;;;;;16.27;9.87;;;;;;;12.77;24.76;99588.28;6252034;28;20506;-76
2022/03/22 09:41:35;;;;;;;12.33;9.07;;;;;;;13.20;24.24;99586.59;6232496;28;20225;-76
2022/03/22 09:44:37;;;;;;;11.07;8.80;;;;;;;13.19;23.54;99577.78;6232714;28;20228;-75
2022/03/22 09:47:42;;;;;;;16.60;9.57;;;;;;;13.18;23.04;99585.81;6252617;28;20230;-75
2022/03/22 09:54:07;;;;;;;11.37;9.00;;;;;;;13.44;22.68;99565.69;6222578;28;20239;-75
2022/03/22 09:57:11;;;;;;;12.93;9.83;;;;;;;13.83;22.90;99563.19;6228931;28;20883;-76
2022/03/22 10:00:15;;;;;;;16.13;9.90;;;;;;;14.09;22.37;99564.16;6257227;28;20259;-76
2022/03/22 10:03:21;;;;;;;11.33;8.53;;;;;;;14.48;22.43;99557.22;6254224;28;20238;-74
2022/03/22 10:06:25;;;;;;;17.47;8.73;;;;;;;13.50;21.47;99557.34;6238213;28;20556;-74
2022/03/22 10:09:36;;;;;;;10.87;7.60;;;;;;;13.56;21.83;99549.03;6237558;28;20757;-75
2022/03/22 10:12:42;;;;;;;10.60;7.00;;;;;;;13.71;20.03;99544.53;6237951;28;20753;-75
2022/03/22 10:15:45;;;;;;;9.13;7.20;;;;;;;14.24;20.45;99547.25;6230023;28;20746;-75
2022/03/22 10:18:47;;;;;;;10.30;7.43;;;;;;;14.46;18.78;99553.84;6252059;28;20235;-75
2022/03/22 10:21:50;;;;;;;9.60;7.00;;;;;;;14.60;19.18;99543.13;6229298;28;20227;-75
2022/03/22 10:24:57;;;;;;;15.10;7.47;;;;;;;14.55;18.49;99550.56;6226045;28;20739;-76
2022/03/22 10:28:02;;;;;;;7.00;5.97;;;;;;;14.67;18.75;99544.44;6228821;28;20246;-76
2022/03/22 10:31:04;;;;;;;10.47;6.67;;;;;;;15.27;20.01;99542.03;6240495;28;20646;-75
2022/03/22 10:34:11;;;;;;;11.90;7.27;;;;;;;15.63;18.63;99535.97;6236303;28;20293;-76
2022/03/22 10:37:13;;;;;;;8.63;7.53;;;;;;;15.60;18.30;99540.66;6254587;28;20231;-75
2022/03/22 10:40:35;;;;;;;13.93;7.90;;;;;;;15.30;18.51;99531.19;6236358;28;20234;-75
2022/03/22 10:43:37;;;;;;;7.63;6.87;;;;;;;15.16;19.19;99533.97;6247510;28;20583;-75
2022/03/22 10:46:45;;;;;;;17.77;7.90;;;;;;;15.83;18.79;99527.41;6237489;28;20308;-76
2022/03/22 10:49:47;;;;;;;10.53;8.27;;;;;;;15.88;18.44;99535.03;6229244;28;20326;-75
2022/03/22 10:52:55;;;;;;;14.10;7.63;;;;;;;15.66;18.89;99524.25;6241454;28;20229;-76
2022/03/22 10:55:59;;;;;;;9.93;7.77;;;;;;;15.68;18.17;99517.00;6254945;28;20299;-75
2022/03/22 10:59:01;;;;;;;9.37;7.07;;;;;;;15.61;18.16;99516.59;6236685;28;20246;-75
2022/03/22 11:02:05;;;;;;;8.13;7.00;;;;;;;15.86;18.58;99513.03;6255026;28;20602;-75
2022/03/22 11:05:09;;;;;;;9.07;7.50;;;;;;;16.24;18.33;99507.53;6253940;28;20219;-76
2022/03/22 11:08:11;;;;;;;8.53;7.27;;;;;;;16.09;18.43;99509.50;6252406;28;20207;-75
2022/03/22 11:11:13;;;;;;;10.60;7.00;;;;;;;16.17;18.00;99499.13;6236101;28;20313;-75
2022/03/22 11:14:17;;;;;;;9.60;7.47;;;;;;;15.95;17.96;99498.19;6253337;28;20223;-75
2022/03/22 11:17:21;;;;;;;8.07;6.80;;;;;;;16.31;18.29;99505.25;6233353;28;20253;-75
2022/03/22 11:20:25;;;;;;;9.67;8.00;;;;;;;17.05;18.26;99494.25;6222352;28;20278;-76
2022/03/22 11:23:30;;;;;;;9.97;7.70;;;;;;;16.56;17.19;99492.66;6227002;28;20226;-75
2022/03/22 11:26:47;;;;;;;10.30;8.10;;;;;;;16.35;17.91;99485.41;6227461;28;20224;-76
2022/03/22 11:29:49;;;;;;;11.40;7.93;;;;;;;16.78;17.77;99475.03;6212775;28;20768;-75
2022/03/22 11:36:15;;;;;;;9.10;7.83;;;;;;;17.44;17.22;99466.22;6236673;28;20231;-75
2022/03/22 11:39:19;;;;;;;10.17;7.50;;;;;;;17.93;17.64;99471.16;6254086;28;20231;-76
2022/03/22 11:42:24;;;;;;;11.50;7.70;;;;;;;17.40;17.42;99461.25;6256368;28;20231;-75
2022/03/22 11:45:27;;;;;;;10.10;8.30;;;;;;;17.36;17.48;99460.66;6219026;28;20227;-76
2022/03/22 11:48:31;;;;;;;17.60;9.30;;;;;;;17.02;17.63;99462.47;6251820;28;20227;-75
2022/03/22 11:51:36;;;;;;;21.33;8.70;;;;;;;17.61;17.39;99459.53;6229501;28;20223;-75
2022/03/22 11:54:39;;;;;;;10.93;8.50;;;;;;;17.17;17.56;99455.91;6253034;28;20227;-75
2022/03/22 11:57:50;;;;;;;10.30;6.97;;;;;;;17.01;17.23;99447.41;6235018;28;20251;-76
2022/03/22 12:00:57;;;;;;;10.47;7.37;;;;;;;17.54;17.83;99445.81;6235570;28;20714;-75
2022/03/22 12:03:59;;;;;;;13.33;8.00;;;;;;;17.32;17.42;99453.84;6252158;28;20706;-76
2022/03/22 12:07:03;;;;;;;9.50;8.00;;;;;;;17.17;17.59;99436.41;6235680;28;20234;-76
2022/03/22 12:10:11;;;;;;;9.37;7.47;;;;;;;17.41;17.95;99429.09;6252969;28;20254;-75
2022/03/22 12:13:13;;;;;;;11.07;7.87;;;;;;;17.20;17.66;99428.97;6236193;28;20234;-76
2022/03/22 12:16:25;;;;;;;10.60;8.33;;;;;;;17.75;16.80;99431.75;6207631;28;20239;-76
2022/03/22 12:19:32;;;;;;;18.93;10.03;;;;;;;17.39;17.03;99433.69;6253115;28;20239;-75
2022/03/22 12:22:48;;;;;;;10.33;8.37;;;;;;;17.19;17.83;99429.94;6230101;28;20334;-76
2022/03/22 12:25:51;;;;;;;11.20;7.60;;;;;;;17.83;17.58;99419.44;6226042;28;20730;-75
2022/03/22 12:28:54;;;;;;;9.67;7.90;;;;;;;18.38;17.03;99420.16;6243010;28;20296;-76
2022/03/22 12:32:06;;;;;;;8.73;7.63;;;;;;;18.86;16.97;99408.97;6253687;28;20269;-76
2022/03/22 12:35:12;;;;;;;13.63;7.93;;;;;;;19.50;16.53;99406.84;6255104;28;20726;-75
2022/03/22 12:38:15;;;;;;;23.77;8.97;;;;;;;18.80;16.14;99405.00;6250708;28;20285;-77
2022/03/22 12:41:18;;;;;;;9.43;7.40;;;;;;;18.25;16.14;99407.00;6249536;28;20224;-76
2022/03/22 12:44:21;;;;;;;8.37;7.37;;;;;;;18.63;17.04;99395.75;6211116;28;20227;-76
2022/03/22 12:47:24;;;;;;;8.87;7.57;;;;;;;19.27;16.48;99394.63;6214328;28;20232;-75
2022/03/22 12:50:29;;;;;;;9.63;7.43;;;;;;;19.04;16.70;99400.19;6230131;28;20668;-76
2022/03/22 12:53:32;;;;;;;13.23;8.07;;;;;;;18.66;16.27;99387.47;6228911;28;20690;-76
2022/03/22 12:56:34;;;;;;;9.77;7.27;;;;;;;18.71;16.67;99384.38;6249899;28;20231;-76
2022/03/22 12:59:57;;;;;;;13.37;7.07;;;;;;;19.55;16.85;99385.88;6226882;28;20586;-76
2022/03/22 13:03:06;;;;;;;7.07;6.37;;;;;;;19.97;15.47;99374.88;6227474;28;20737;-76
2022/03/22 13:06:08;;;;;;;9.23;6.67;;;;;;;19.32;15.13;99366.47;6198967;28;20235;-76
2022/03/22 13:12:43;;;;;;;12.97;7.13;;;;;;;19.48;15.56;99368.63;6248353;28;20238;-74
2022/03/22 13:15:52;;;;;;;21.57;8.03;;;;;;;19.40;15.22;99360.41;6216421;28;20701;-76
2022/03/22 13:18:58;;;;;;;8.37;6.37;;;;;;;19.81;16.14;99357.56;6251384;28;20709;-76
2022/03/22 13:22:02;;;;;;;8.47;6.97;;;;;;;20.54;14.69;99350.72;6234712;28;20600;-76
2022/03/22 13:25:07;;;;;;;8.43;6.50;;;;;;;20.20;15.01;99346.81;6250860;28;20226;-76
2022/03/22 13:28:15;;;;;;;10.60;6.53;;;;;;;21.28;13.75;99337.28;6225753;28;20232;-76
2022/03/22 13:31:22;;;;;;;16.97;10.40;;;;;;;23.61;12.82;99337.47;6228010;28;20234;-76
2022/03/22 13:34:27;;;;;;;11.73;7.17;;;;;;;25.91;12.03;99324.94;6235273;28;20749;-76
2022/03/22 13:37:41;;;;;;;9.00;6.17;;;;;;;23.84;11.92;99335.81;6216880;28;20231;-76
2022/03/22 13:40:44;;;;;;;10.97;6.97;;;;;;;26.63;10.66;99337.00;6216055;28;20760;-76
2022/03/22 13:43:47;;;;;;;9.67;6.47;;;;;;;27.21;10.40;99329.06;6219921;28;20231;-75
2022/03/22 13:46:50;;;;;;;29.03;9.20;;;;;;;27.68;10.15;99329.44;6224990;28;20237;-76
2022/03/22 13:49:52;;;;;;;22.20;7.77;;;;;;;27.00;10.31;99319.84;6242228;28;20234;-77
2022/03/22 13:53:04;;;;;;;9.17;5.83;;;;;;;28.39;9.66;99319.50;6255018;28;20219;-75
2022/03/22 13:56:07;;;;;;;9.07;6.37;;;;;;;29.41;8.90;99318.88;6238475;28;20231;-75
2022/03/22 13:59:24;;;;;;;9.20;6.57;;;;;;;27.15;9.43;99325.25;6250019;28;20263;-74
2022/03/22 14:02:53;;;;;;;8.77;6.43;;;;;;;28.45;9.67;99318.69;6238866;28;20228;-77
2022/03/22 14:05:58;;;;;;;16.40;6.87;;;;;;;26.28;10.26;99318.72;6242299;28;20320;-77
2022/03/22 14:09:00;;;;;;;28.30;7.20;;;;;;;21.43;13.07;99316.16;6243865;28;20687;-77
2022/03/22 14:12:04;;;;;;;7.77;6.03;;;;;;;21.02;13.84;99316.63;6254650;28;20242;-77
2022/03/22 14:15:07;;;;;;;8.93;6.17;;;;;;;19.80;14.96;99307.63;6235898;28;20646;-76
2022/03/22 14:18:09;;;;;;;11.27;6.37;;;;;;;21.96;13.59;99300.00;6218158;28;20207;-75
2022/03/22 14:21:12;;;;;;;10.83;6.20;;;;;;;22.85;12.90;99307.03;6255523;28;20575;-76
2022/03/22 14:24:15;;;;;;;6.90;6.17;;;;;;;20.86;14.11;99310.06;6220675;28;20216;-75
2022/03/22 14:27:21;;;;;;;6.20;5.60;;;;;;;18.92;15.16;99312.97;6233828;28;20346;-76
2022/03/22 14:30:31;;;;;;;13.80;7.17;;;;;;;18.23;15.75;99310.06;6254914;28;20668;-76
2022/03/22 14:33:33;;;;;;;13.20;7.17;;;;;;;17.02;17.77;99305.06;6236861;28;20268;-77
2022/03/22 14:36:35;;;;;;;6.47;5.70;;;;;;;16.49;17.34;99301.31;6254720;28;20219;-76
2022/03/22 14:39:38;;;;;;;8.23;5.90;;;;;;;16.81;16.95;99304.97;6255177;28;20266;-76
2022/03/22 14:42:40;;;;;;;13.67;6.40;;;;;;;16.56;16.99;99294.53;6253069;28;20246;-75
2022/03/22 14:45:47;;;;;;;8.70;6.10;;;;;;;16.20;17.57;99295.59;6251385;28;20227;-75
2022/03/22 14:48:50;;;;;;;7.70;6.10;;;;;;;15.34;17.78;99305.69;6235119;28;20235;-76
2022/03/22 14:55:14;;;;;;;6.53;5.30;;;;;;;14.87;18.96;99294.06;6228768;28;20589;-76
2022/03/22 15:01:36;;;;;;;7.37;5.73;;;;;;;14.61;18.73;99290.59;6232445;28;20228;-76
2022/03/22 15:04:42;;;;;;;7.27;5.67;;;;;;;14.37;19.05;99287.81;6247409;28;20331;-76
2022/03/22 15:07:46;;;;;;;8.73;5.50;;;;;;;14.29;19.10;99282.19;6227172;28;20596;-76
2022/03/22 15:10:49;;;;;;;5.80;5.20;;;;;;;14.34;19.42;99284.53;6242319;28;20230;-76
2022/03/22 15:13:51;;;;;;;6.93;5.83;;;;;;;14.19;19.54;99277.63;6244159;28;20350;-75
2022/03/22 15:16:54;;;;;;;8.43;5.60;;;;;;;14.06;19.90;99276.81;6227656;28;20223;-76